Private Wetterstation Wechselburg
Wetterdaten: Woche 07.10.13 - 13.10.13 (KW41)
Datum Zeit Temp. +2m Bodentemp. Temp.+5cm Temp. Wind Windchill X Diff Temp. Feuchte +2m Feuchte +5cm Sonnenschein Luftdruck Regen Wind Richtung Sonnenschein UV Taupunkt Windchill Windben
07.10.2013 00:00 10,4 C 19,8 C 11,5 C 11,2 C 11,2 C 0,7 C 89 % 85 % 0 % 1025,3 hPa 0,0 l/m 0,0 km/h (0 Bft) N 0,00 h 0,0 UV-I 8,7 C 11,2 C 0,0 km/h (0 Bft)
07.10.2013 01:00 10,3 C 19,8 C 11,3 C 11,2 C 11,2 C 0,9 C 90 % 85 % 0 % 1025,0 hPa 0,0 l/m 0,0 km/h (0 Bft) N 0,00 h 0,0 UV-I 8,7 C 11,2 C 0,0 km/h (0 Bft)
07.10.2013 02:00 10,1 C 19,8 C 11,2 C 11,0 C 11,0 C 0,8 C 90 % 85 % 0 % 1025,1 hPa 0,0 l/m 0,0 km/h (0 Bft) N 0,00 h 0,0 UV-I 8,6 C 11,0 C 0,0 km/h (0 Bft)
07.10.2013 03:00 10,1 C 19,8 C 11,2 C 11,0 C 11,0 C 0,9 C 90 % 85 % 0 % 1025,0 hPa 0,0 l/m 0,0 km/h (0 Bft) N 0,00 h 0,0 UV-I 8,6 C 11,0 C 0,0 km/h (0 Bft)
07.10.2013 04:00 10,1 C 19,8 C 11,2 C 10,9 C 10,9 C 0,8 C 91 % 85 % 0 % 1024,9 hPa 0,0 l/m 0,0 km/h (0 Bft) N 0,00 h 0,0 UV-I 8,7 C 10,9 C 0,0 km/h (0 Bft)
07.10.2013 05:00 10,0 C 19,8 C 11,1 C 10,9 C 10,9 C 0,9 C 91 % 85 % 0 % 1025,0 hPa 0,0 l/m 0,0 km/h (0 Bft) N 0,00 h 0,0 UV-I 8,6 C 10,9 C 0,0 km/h (0 Bft)
07.10.2013 06:00 10,0 C 19,8 C 11,2 C 10,9 C 10,9 C 0,9 C 91 % 85 % 0 % 1024,8 hPa 0,0 l/m 0,0 km/h (0 Bft) N 0,00 h 0,0 UV-I 8,6 C 10,9 C 0,0 km/h (0 Bft)
07.10.2013 07:00 10,0 C 19,8 C 11,1 C 10,8 C 10,8 C 0,8 C 91 % 86 % 11 % 1025,0 hPa 0,0 l/m 0,0 km/h (0 Bft) N 0,50 h 0,0 UV-I 8,6 C 10,8 C 0,0 km/h (0 Bft)
07.10.2013 08:00 10,2 C 19,8 C 11,4 C 11,3 C 11,3 C 1,1 C 91 % 86 % 29 % 1025,6 hPa 0,0 l/m 0,0 km/h (0 Bft) N 0,00 h 0,0 UV-I 8,8 C 11,3 C 0,0 km/h (0 Bft)
07.10.2013 09:00 10,9 C 19,8 C 12,2 C 12,7 C 12,7 C 1,8 C 92 % 85 % 47 % 1026,1 hPa 0,0 l/m 0,0 km/h (0 Bft) N 0,00 h 0,0 UV-I 9,6 C 12,7 C 0,0 km/h (0 Bft)
07.10.2013 10:00 11,8 C 19,8 C 13,1 C 14,3 C 14,3 C 2,4 C 92 % 85 % 63 % 1025,8 hPa 0,0 l/m 0,2 km/h (0 Bft) O-NO 0,00 h 0,0 UV-I 10,6 C 14,3 C 0,4 km/h (0 Bft)
07.10.2013 11:00 13,2 C 19,6 C 14,5 C 16,0 C 16,0 C 2,8 C 88 % 83 % 72 % 1026,0 hPa 0,0 l/m 1,6 km/h (1 Bft) O-NO 0,00 h 0,0 UV-I 11,2 C 16,0 C 2,9 km/h (1 Bft)
07.10.2013 12:00 14,7 C 19,6 C 15,5 C 16,9 C 16,9 C 2,2 C 81 % 79 % 58 % 1026,1 hPa 0,0 l/m 3,6 km/h (1 Bft) O-NO 0,00 h 0,0 UV-I 11,5 C 16,9 C 4,9 km/h (1 Bft)
07.10.2013 13:00 15,6 C 19,6 C 15,9 C 17,0 C 17,0 C 1,4 C 76 % 75 % 36 % 1025,6 hPa 0,0 l/m 4,7 km/h (1 Bft) O-NO 0,00 h 0,0 UV-I 11,4 C 17,0 C 5,9 km/h (2 Bft)
07.10.2013 14:00 16,1 C 19,7 C 16,4 C 17,4 C 17,4 C 1,3 C 73 % 73 % 35 % 1025,2 hPa 0,0 l/m 4,6 km/h (1 Bft) O-NO 0,00 h 0,0 UV-I 11,2 C 17,4 C 5,9 km/h (2 Bft)
07.10.2013 15:00 16,2 C 19,8 C 16,3 C 17,1 C 17,1 C 0,9 C 71 % 72 % 23 % 1025,4 hPa 0,0 l/m 4,7 km/h (1 Bft) O-NO 0,00 h 0,0 UV-I 11,0 C 17,1 C 4,8 km/h (1 Bft)
07.10.2013 16:00 16,0 C 19,9 C 15,9 C 16,4 C 16,4 C 0,5 C 72 % 73 % 12 % 1025,3 hPa 0,0 l/m 4,7 km/h (1 Bft) O-NO 0,00 h 0,0 UV-I 10,9 C 16,4 C 5,0 km/h (1 Bft)
07.10.2013 17:00 15,6 C 20,0 C 15,3 C 15,7 C 15,6 C 0,1 C 74 % 75 % 2 % 1025,0 hPa 0,0 l/m 3,8 km/h (1 Bft) O-NO 0,00 h 0,0 UV-I 11,0 C 15,6 C 4,5 km/h (1 Bft)
07.10.2013 18:00 15,1 C 20,0 C 14,6 C 15,0 C 14,9 C 0,0 C 76 % 77 % 0 % 1024,7 hPa 0,0 l/m 1,4 km/h (1 Bft) O-NO 0,00 h 0,0 UV-I 10,9 C 14,9 C 1,2 km/h (1 Bft)
07.10.2013 19:00 14,3 C 20,1 C 13,9 C 14,2 C 14,1 C 0,0 C 78 % 79 % 0 % 1025,1 hPa 0,0 l/m 1,9 km/h (1 Bft) O-NO 0,00 h 0,0 UV-I 10,5 C 14,1 C 3,2 km/h (1 Bft)
07.10.2013 20:00 14,1 C 20,1 C 13,6 C 14,0 C 13,9 C 0,0 C 78 % 79 % 0 % 1025,2 hPa 0,0 l/m 3,3 km/h (1 Bft) O-NO 0,00 h 0,0 UV-I 10,3 C 13,9 C 4,3 km/h (1 Bft)
07.10.2013 21:00 13,7 C 20,2 C 13,3 C 13,7 C 13,6 C 0,0 C 79 % 79 % 0 % 1025,4 hPa 0,0 l/m 3,1 km/h (1 Bft) O-NO 0,00 h 0,0 UV-I 10,1 C 13,6 C 3,6 km/h (1 Bft)
07.10.2013 22:00 13,3 C 20,2 C 12,9 C 13,2 C 13,0 C 0,0 C 80 % 80 % 0 % 1025,2 hPa 0,0 l/m 0,1 km/h (0 Bft) N 0,00 h 0,0 UV-I 9,9 C 13,0 C 0,1 km/h (0 Bft)
07.10.2013 23:00 12,7 C 20,3 C 12,5 C 12,6 C 12,5 C 0,0 C 82 % 81 % 0 % 1025,2 hPa 0,0 l/m 0,0 km/h (0 Bft) N 0,00 h 0,0 UV-I 9,6 C 12,5 C 0,0 km/h (0 Bft)
08.10.2013 00:00 12,3 C 20,3 C 12,3 C 12,3 C 12,3 C 0,1 C 83 % 81 % 0 % 1025,3 hPa 0,0 l/m 0,0 km/h (0 Bft) N 0,00 h 0,0 UV-I 9,5 C 12,3 C 0,0 km/h (0 Bft)
08.10.2013 01:00 11,9 C 20,3 C 12,1 C 12,1 C 12,1 C 0,2 C 84 % 82 % 0 % 1025,2 hPa 0,0 l/m 0,0 km/h (0 Bft) N 0,00 h 0,0 UV-I 9,2 C 12,1 C 0,0 km/h (0 Bft)
08.10.2013 02:00 11,5 C 20,3 C 12,0 C 12,0 C 12,0 C 0,5 C 85 % 83 % 0 % 1024,7 hPa 0,0 l/m 0,0 km/h (0 Bft) N 0,00 h 0,0 UV-I 9,1 C 12,0 C 0,0 km/h (0 Bft)
08.10.2013 03:00 11,5 C 20,3 C 11,8 C 11,9 C 11,9 C 0,4 C 84 % 83 % 0 % 1024,7 hPa 0,0 l/m 0,0 km/h (0 Bft) N 0,00 h 0,0 UV-I 9,0 C 11,9 C 0,0 km/h (0 Bft)
08.10.2013 04:00 11,5 C 20,2 C 11,5 C 11,6 C 11,5 C 0,2 C 83 % 82 % 0 % 1024,2 hPa 0,0 l/m 0,2 km/h (0 Bft) N 0,00 h 0,0 UV-I 8,7 C 11,5 C 0,4 km/h (0 Bft)
08.10.2013 05:00 10,3 C 20,2 C 10,2 C 10,0 C 9,2 C 0,0 C 83 % 83 % 0 % 1024,3 hPa 0,0 l/m 0,0 km/h (0 Bft) N 0,00 h 0,0 UV-I 7,5 C 9,2 C 0,0 km/h (0 Bft)
08.10.2013 06:00 8,6 C 20,3 C 8,8 C 8,2 C 7,6 C 0,0 C 85 % 84 % 0 % 1024,7 hPa 0,0 l/m 0,0 km/h (0 Bft) N 0,00 h 0,0 UV-I 6,1 C 7,6 C 0,0 km/h (0 Bft)
08.10.2013 07:00 6,8 C 20,2 C 7,6 C 6,7 C 6,4 C 0,1 C 86 % 85 % 2 % 1023,8 hPa 0,0 l/m 0,0 km/h (0 Bft) N 0,00 h 0,0 UV-I 4,7 C 6,4 C 0,0 km/h (0 Bft)
08.10.2013 08:00 6,0 C 20,2 C 7,5 C 7,0 C 7,0 C 1,0 C 88 % 85 % 26 % 1024,0 hPa 0,0 l/m 0,0 km/h (0 Bft) N 0,17 h 0,0 UV-I 4,2 C 7,0 C 0,0 km/h (0 Bft)
08.10.2013 09:00 6,8 C 20,0 C 8,8 C 8,3 C 8,3 C 1,5 C 90 % 85 % 40 % 1023,9 hPa 0,0 l/m 0,1 km/h (0 Bft) N 0,00 h 0,0 UV-I 5,2 C 8,3 C 0,1 km/h (0 Bft)
08.10.2013 10:00 8,6 C 19,8 C 11,1 C 11,5 C 11,5 C 2,9 C 91 % 84 % 76 % 1024,1 hPa 0,0 l/m 0,7 km/h (0 Bft) W-SW 0,17 h 0,0 UV-I 7,2 C 11,5 C 1,2 km/h (1 Bft)
08.10.2013 11:00 12,3 C 19,7 C 12,9 C 14,3 C 14,3 C 2,0 C 82 % 80 % 51 % 1023,7 hPa 0,0 l/m 2,5 km/h (1 Bft) O-NO 0,00 h 0,0 UV-I 9,2 C 14,3 C 3,4 km/h (1 Bft)
08.10.2013 12:00 14,5 C 19,7 C 14,2 C 16,4 C 16,4 C 1,9 C 72 % 75 % 50 % 1023,3 hPa 0,0 l/m 3,4 km/h (1 Bft) O-NO 0,18 h 0,0 UV-I 9,4 C 16,4 C 6,3 km/h (2 Bft)
08.10.2013 13:00 15,2 C 19,6 C 14,9 C 19,8 C 19,8 C 4,6 C 70 % 73 % 98 % 1022,7 hPa 0,0 l/m 2,0 km/h (1 Bft) O-NO 1,15 h 0,0 UV-I 9,7 C 19,8 C 2,5 km/h (1 Bft)
08.10.2013 14:00 15,9 C 19,7 C 15,6 C 19,4 C 19,4 C 3,5 C 68 % 71 % 82 % 1022,8 hPa 0,0 l/m 0,9 km/h (0 Bft) NO 0,42 h 0,0 UV-I 9,9 C 19,4 C 1,5 km/h (1 Bft)
08.10.2013 15:00 17,1 C 19,7 C 16,7 C 22,7 C 22,7 C 5,7 C 64 % 68 % 100 % 1022,1 hPa 0,0 l/m 1,5 km/h (1 Bft) O-NO 1,00 h 0,0 UV-I 10,1 C 22,7 C 2,8 km/h (1 Bft)
08.10.2013 16:00 17,8 C 19,8 C 17,1 C 22,5 C 22,5 C 4,7 C 61 % 65 % 100 % 1021,8 hPa 0,0 l/m 0,9 km/h (0 Bft) N-NO 1,00 h 0,0 UV-I 10,0 C 22,5 C 0,6 km/h (0 Bft)
08.10.2013 17:00 16,9 C 20,0 C 16,4 C 19,6 C 19,6 C 2,7 C 62 % 67 % 70 % 1021,5 hPa 0,0 l/m 0,3 km/h (0 Bft) N 0,92 h 0,0 UV-I 9,7 C 19,6 C 0,3 km/h (0 Bft)
08.10.2013 18:00 15,3 C 20,1 C 14,3 C 15,1 C 14,5 C 0,0 C 68 % 73 % 0 % 1021,8 hPa 0,0 l/m 0,3 km/h (0 Bft) N 0,00 h 0,0 UV-I 9,5 C 14,5 C 0,9 km/h (0 Bft)
08.10.2013 19:00 12,8 C 20,2 C 12,1 C 12,3 C 11,3 C 0,0 C 75 % 78 % 0 % 1022,4 hPa 0,0 l/m 0,1 km/h (0 Bft) N 0,00 h 0,0 UV-I 8,6 C 11,3 C 0,2 km/h (0 Bft)
08.10.2013 20:00 11,2 C 20,3 C 10,9 C 10,8 C 9,8 C 0,0 C 80 % 81 % 0 % 1022,7 hPa 0,0 l/m 0,1 km/h (0 Bft) N 0,00 h 0,0 UV-I 7,9 C 9,8 C 0,0 km/h (0 Bft)
08.10.2013 21:00 9,4 C 20,4 C 9,4 C 9,1 C 8,3 C 0,0 C 83 % 82 % 0 % 1022,9 hPa 0,0 l/m 0,0 km/h (0 Bft) N 0,00 h 0,0 UV-I 6,7 C 8,3 C 0,0 km/h (0 Bft)
08.10.2013 22:00 8,2 C 20,4 C 9,5 C 8,8 C 8,8 C 0,6 C 86 % 84 % 0 % 1023,2 hPa 0,0 l/m 0,0 km/h (0 Bft) N 0,00 h 0,0 UV-I 6,0 C 8,8 C 0,0 km/h (0 Bft)
08.10.2013 23:00 8,3 C 20,2 C 10,0 C 9,6 C 9,6 C 1,3 C 87 % 84 % 0 % 1022,9 hPa 0,0 l/m 0,0 km/h (0 Bft) N 0,00 h 0,0 UV-I 6,3 C 9,6 C 0,0 km/h (0 Bft)
09.10.2013 00:00 8,7 C 20,2 C 10,3 C 10,0 C 10,0 C 1,4 C 88 % 84 % 0 % 1022,5 hPa 0,0 l/m 0,0 km/h (0 Bft) N 0,00 h 0,0 UV-I 6,8 C 10,0 C 0,0 km/h (0 Bft)
09.10.2013 01:00 9,1 C 20,1 C 10,5 C 10,3 C 10,3 C 1,2 C 87 % 84 % 0 % 1021,9 hPa 0,0 l/m 0,0 km/h (0 Bft) N 0,00 h 0,0 UV-I 7,1 C 10,3 C 0,0 km/h (0 Bft)
09.10.2013 02:00 9,4 C 20,1 C 10,7 C 10,5 C 10,5 C 1,2 C 88 % 84 % 0 % 1021,7 hPa 0,0 l/m 0,0 km/h (0 Bft) N 0,00 h 0,0 UV-I 7,4 C 10,5 C 0,0 km/h (0 Bft)
09.10.2013 03:00 9,5 C 20,1 C 10,8 C 10,7 C 10,7 C 1,1 C 88 % 84 % 0 % 1021,5 hPa 0,0 l/m 0,0 km/h (0 Bft) N 0,00 h 0,0 UV-I 7,6 C 10,7 C 0,0 km/h (0 Bft)
09.10.2013 04:00 9,8 C 20,0 C 10,8 C 10,7 C 10,7 C 0,9 C 87 % 84 % 0 % 1021,0 hPa 0,0 l/m 0,0 km/h (0 Bft) N 0,00 h 0,0 UV-I 7,7 C 10,7 C 0,0 km/h (0 Bft)
09.10.2013 05:00 9,9 C 20,0 C 10,8 C 10,7 C 10,7 C 0,8 C 87 % 84 % 0 % 1021,1 hPa 0,0 l/m 0,0 km/h (0 Bft) N 0,00 h 0,0 UV-I 7,8 C 10,7 C 0,0 km/h (0 Bft)
09.10.2013 06:00 9,9 C 20,0 C 10,8 C 10,7 C 10,7 C 0,8 C 87 % 84 % 0 % 1020,3 hPa 0,0 l/m 0,0 km/h (0 Bft) N 0,00 h 0,0 UV-I 7,8 C 10,7 C 0,0 km/h (0 Bft)
09.10.2013 07:00 10,0 C 20,0 C 10,9 C 10,8 C 10,8 C 0,8 C 87 % 84 % 9 % 1020,1 hPa 0,0 l/m 0,0 km/h (0 Bft) N 0,42 h 0,0 UV-I 8,0 C 10,8 C 0,0 km/h (0 Bft)
09.10.2013 08:00 10,2 C 19,9 C 11,1 C 11,2 C 11,2 C 1,0 C 86 % 84 % 27 % 1019,8 hPa 0,0 l/m 0,0 km/h (0 Bft) N 0,25 h 0,0 UV-I 7,9 C 11,2 C 0,0 km/h (0 Bft)
09.10.2013 09:00 10,8 C 19,9 C 11,5 C 12,0 C 12,0 C 1,2 C 86 % 84 % 32 % 1019,7 hPa 0,0 l/m 0,1 km/h (0 Bft) N 0,00 h 0,0 UV-I 8,5 C 12,0 C 0,2 km/h (0 Bft)
09.10.2013 10:00 12,7 C 19,9 C 13,2 C 15,1 C 15,1 C 2,4 C 83 % 82 % 62 % 1019,4 hPa 0,0 l/m 0,2 km/h (0 Bft) N 0,00 h 0,0 UV-I 9,9 C 15,1 C 0,6 km/h (0 Bft)
09.10.2013 11:00 14,9 C 19,9 C 14,7 C 17,0 C 17,0 C 2,2 C 77 % 78 % 58 % 1018,8 hPa 0,0 l/m 0,8 km/h (0 Bft) O-SO 0,00 h 0,0 UV-I 10,8 C 17,0 C 2,3 km/h (1 Bft)
09.10.2013 12:00 15,6 C 19,8 C 15,4 C 18,0 C 18,0 C 2,4 C 71 % 75 % 61 % 1018,1 hPa 0,0 l/m 2,2 km/h (1 Bft) SW 0,25 h 0,0 UV-I 10,3 C 18,0 C 3,8 km/h (1 Bft)
09.10.2013 13:00 16,8 C 19,9 C 16,7 C 20,6 C 20,6 C 3,8 C 66 % 70 % 85 % 1017,1 hPa 0,0 l/m 2,8 km/h (1 Bft) SW 0,50 h 0,0 UV-I 10,4 C 20,6 C 4,5 km/h (1 Bft)
09.10.2013 14:00 17,3 C 20,0 C 17,2 C 19,5 C 19,5 C 2,2 C 64 % 68 % 57 % 1016,1 hPa 0,0 l/m 2,9 km/h (1 Bft) W 0,08 h 0,0 UV-I 10,4 C 19,5 C 4,0 km/h (1 Bft)
09.10.2013 15:00 18,2 C 20,0 C 18,0 C 22,6 C 22,6 C 4,4 C 60 % 64 % 94 % 1015,1 hPa 0,0 l/m 1,9 km/h (1 Bft) S-SW 0,83 h 0,0 UV-I 10,2 C 22,6 C 2,6 km/h (1 Bft)
09.10.2013 16:00 17,9 C 20,1 C 17,3 C 19,0 C 19,0 C 1,1 C 59 % 64 % 29 % 1014,2 hPa 0,0 l/m 1,3 km/h (1 Bft) SW 0,00 h 0,0 UV-I 9,8 C 19,0 C 2,0 km/h (1 Bft)
09.10.2013 17:00 16,7 C 20,2 C 16,0 C 16,6 C 16,5 C 0,0 C 64 % 68 % 0 % 1013,4 hPa 0,0 l/m 0,7 km/h (0 Bft) O-NO 0,00 h 0,0 UV-I 9,8 C 16,5 C 0,6 km/h (0 Bft)
09.10.2013 18:00 15,7 C 20,4 C 15,2 C 15,6 C 15,4 C 0,0 C 66 % 70 % 0 % 1013,0 hPa 0,0 l/m 0,7 km/h (0 Bft) S 0,00 h 0,0 UV-I 9,5 C 15,4 C 1,0 km/h (0 Bft)
09.10.2013 19:00 14,8 C 20,4 C 14,3 C 14,6 C 14,2 C 0,0 C 69 % 73 % 0 % 1012,9 hPa 0,0 l/m 0,6 km/h (0 Bft) SO 0,00 h 0,0 UV-I 9,2 C 14,2 C 0,9 km/h (0 Bft)
09.10.2013 20:00 14,1 C 20,4 C 13,8 C 14,0 C 13,7 C 0,0 C 71 % 74 % 0 % 1012,5 hPa 0,0 l/m 0,8 km/h (0 Bft) SW 0,00 h 0,0 UV-I 8,9 C 13,7 C 1,5 km/h (1 Bft)
09.10.2013 21:00 13,7 C 20,4 C 13,4 C 13,6 C 13,3 C 0,0 C 73 % 76 % 0 % 1011,9 hPa 0,0 l/m 1,3 km/h (1 Bft) S 0,00 h 0,0 UV-I 9,0 C 13,3 C 2,5 km/h (1 Bft)
09.10.2013 22:00 13,2 C 20,4 C 13,1 C 13,0 C 12,6 C 0,0 C 76 % 77 % 0 % 1011,4 hPa 0,0 l/m 0,9 km/h (0 Bft) SO 0,00 h 0,0 UV-I 9,0 C 12,6 C 0,9 km/h (0 Bft)
09.10.2013 23:00 13,0 C 20,5 C 12,9 C 12,8 C 12,4 C 0,0 C 78 % 79 % 0 % 1010,6 hPa 0,0 l/m 1,3 km/h (1 Bft) S-SO 0,00 h 0,0 UV-I 9,2 C 12,4 C 2,6 km/h (1 Bft)
10.10.2013 00:00 12,5 C 20,5 C 12,4 C 12,2 C 11,6 C 0,0 C 81 % 81 % 0 % 1009,7 hPa 0,0 l/m 0,7 km/h (0 Bft) S 0,00 h 0,0 UV-I 9,3 C 11,6 C 1,8 km/h (1 Bft)
10.10.2013 01:00 12,5 C 20,5 C 12,5 C 12,5 C 12,3 C 0,0 C 81 % 81 % 0 % 1008,9 hPa 0,0 l/m 1,1 km/h (1 Bft) S-SO 0,00 h 0,0 UV-I 9,4 C 12,3 C 3,4 km/h (1 Bft)
10.10.2013 02:00 12,9 C 20,4 C 12,7 C 12,8 C 12,6 C 0,0 C 80 % 80 % 0 % 1008,0 hPa 0,0 l/m 1,6 km/h (1 Bft) W-SW 0,00 h 0,0 UV-I 9,5 C 12,6 C 2,7 km/h (1 Bft)
10.10.2013 03:00 12,9 C 20,4 C 12,7 C 12,8 C 12,5 C 0,0 C 80 % 81 % 0 % 1007,1 hPa 0,0 l/m 1,5 km/h (1 Bft) SO 0,00 h 0,0 UV-I 9,5 C 12,5 C 3,1 km/h (1 Bft)
10.10.2013 04:00 12,7 C 20,4 C 12,4 C 12,5 C 12,1 C 0,0 C 81 % 81 % 0 % 1006,6 hPa 0,0 l/m 1,6 km/h (1 Bft) W-SW 0,00 h 0,0 UV-I 9,5 C 12,1 C 2,7 km/h (1 Bft)
10.10.2013 05:00 12,7 C 20,4 C 12,4 C 12,6 C 12,5 C 0,0 C 81 % 81 % 0 % 1005,8 hPa 0,0 l/m 1,6 km/h (1 Bft) S-SO 0,00 h 0,0 UV-I 9,5 C 12,5 C 3,1 km/h (1 Bft)
10.10.2013 06:00 12,4 C 20,6 C 12,0 C 12,2 C 11,7 C 0,0 C 82 % 82 % 0 % 1005,2 hPa 0,7 l/m 0,6 km/h (0 Bft) S-SO 0,00 h 0,0 UV-I 9,5 C 11,7 C 0,6 km/h (0 Bft)
10.10.2013 07:00 11,1 C 20,9 C 11,4 C 11,1 C 11,0 C 0,1 C 86 % 85 % 2 % 1004,8 hPa 2,1 l/m 0,0 km/h (0 Bft) N 0,00 h 0,0 UV-I 8,8 C 11,0 C 0,0 km/h (0 Bft)
10.10.2013 08:00 10,4 C 20,9 C 11,3 C 11,0 C 11,0 C 0,6 C 88 % 87 % 17 % 1004,5 hPa 2,1 l/m 0,0 km/h (0 Bft) N 0,00 h 0,0 UV-I 8,4 C 11,0 C 0,0 km/h (0 Bft)
10.10.2013 09:00 10,4 C 20,8 C 11,5 C 11,3 C 11,3 C 0,9 C 89 % 88 % 23 % 1004,5 hPa 0,7 l/m 0,0 km/h (0 Bft) N 0,00 h 0,0 UV-I 8,6 C 11,3 C 0,0 km/h (0 Bft)
10.10.2013 10:00 10,8 C 20,9 C 11,8 C 11,8 C 11,8 C 1,0 C 90 % 88 % 27 % 1004,5 hPa 0,7 l/m 0,0 km/h (0 Bft) N 0,00 h 0,0 UV-I 9,1 C 11,8 C 0,0 km/h (0 Bft)
10.10.2013 11:00 11,3 C 20,8 C 12,3 C 12,5 C 12,5 C 1,2 C 90 % 88 % 32 % 1004,4 hPa 0,7 l/m 0,1 km/h (0 Bft) N 0,00 h 0,0 UV-I 9,7 C 12,5 C 0,2 km/h (0 Bft)
10.10.2013 12:00 12,0 C 20,8 C 12,7 C 13,0 C 13,0 C 1,0 C 88 % 88 % 26 % 1004,5 hPa 0,0 l/m 1,2 km/h (1 Bft) O-SO 0,00 h 0,0 UV-I 10,1 C 13,0 C 2,7 km/h (1 Bft)
10.10.2013 13:00 9,8 C 20,7 C 11,0 C 10,4 C 10,4 C 0,6 C 87 % 88 % 15 % 1005,1 hPa 0,7 l/m 3,9 km/h (1 Bft) W 0,00 h 0,0 UV-I 7,7 C 10,4 C 5,4 km/h (1 Bft)
10.10.2013 14:00 8,4 C 20,7 C 10,0 C 9,4 C 9,4 C 1,0 C 88 % 88 % 26 % 1005,8 hPa 0,0 l/m 4,2 km/h (1 Bft) S 0,00 h 0,0 UV-I 6,5 C 9,3 C 5,9 km/h (2 Bft)
10.10.2013 15:00 7,5 C 20,6 C 9,1 C 8,3 C 8,3 C 0,8 C 88 % 88 % 21 % 1006,5 hPa 0,0 l/m 3,9 km/h (1 Bft) W-SW 0,00 h 0,0 UV-I 5,6 C 8,3 C 5,5 km/h (1 Bft)
10.10.2013 16:00 7,3 C 20,4 C 8,9 C 8,3 C 8,3 C 1,0 C 88 % 88 % 27 % 1006,5 hPa 0,0 l/m 1,1 km/h (1 Bft) S 0,00 h 0,0 UV-I 5,5 C 8,3 C 1,4 km/h (1 Bft)
10.10.2013 17:00 7,3 C 20,3 C 8,9 C 8,0 C 8,0 C 0,7 C 88 % 89 % 19 % 1007,3 hPa 0,0 l/m 0,9 km/h (0 Bft) N-NO 0,08 h 0,0 UV-I 5,4 C 8,0 C 1,6 km/h (1 Bft)
10.10.2013 18:00 7,0 C 20,2 C 8,7 C 7,7 C 7,7 C 0,6 C 88 % 89 % 5 % 1008,2 hPa 0,0 l/m 2,5 km/h (1 Bft) SW 0,33 h 0,0 UV-I 5,3 C 7,7 C 2,8 km/h (1 Bft)
10.10.2013 19:00 6,6 C 20,1 C 8,1 C 7,2 C 7,2 C 0,6 C 89 % 89 % 0 % 1008,9 hPa 0,0 l/m 0,5 km/h (0 Bft) SW 0,00 h 0,0 UV-I 4,9 C 7,2 C 0,7 km/h (0 Bft)
10.10.2013 20:00 6,7 C 20,1 C 8,1 C 7,3 C 7,3 C 0,7 C 90 % 89 % 0 % 1009,4 hPa 0,7 l/m 0,2 km/h (0 Bft) N 0,00 h 0,0 UV-I 5,1 C 7,3 C 0,5 km/h (0 Bft)
10.10.2013 21:00 6,8 C 20,1 C 8,2 C 7,7 C 7,7 C 0,8 C 90 % 89 % 0 % 1009,5 hPa 1,4 l/m 0,0 km/h (0 Bft) N 0,00 h 0,0 UV-I 5,3 C 7,7 C 0,0 km/h (0 Bft)
10.10.2013 22:00 6,9 C 20,1 C 8,0 C 7,6 C 7,6 C 0,7 C 90 % 90 % 0 % 1010,3 hPa 2,1 l/m 0,1 km/h (0 Bft) N 0,00 h 0,0 UV-I 5,3 C 7,6 C 0,3 km/h (0 Bft)
10.10.2013 23:00 6,8 C 20,0 C 8,0 C 7,5 C 7,5 C 0,7 C 90 % 90 % 0 % 1010,8 hPa 1,4 l/m 0,0 km/h (0 Bft) N 0,00 h 0,0 UV-I 5,2 C 7,5 C 0,0 km/h (0 Bft)
11.10.2013 00:00 6,7 C 20,0 C 7,9 C 7,3 C 7,3 C 0,7 C 90 % 90 % 0 % 1010,8 hPa 0,7 l/m 0,0 km/h (0 Bft) N 0,00 h 0,0 UV-I 5,2 C 7,3 C 0,2 km/h (0 Bft)
11.10.2013 01:00 6,7 C 20,1 C 8,0 C 7,4 C 7,4 C 0,8 C 91 % 90 % 0 % 1011,1 hPa 0,7 l/m 0,0 km/h (0 Bft) N 0,00 h 0,0 UV-I 5,3 C 7,4 C 0,0 km/h (0 Bft)
11.10.2013 02:00 6,6 C 20,2 C 7,9 C 7,3 C 7,3 C 0,7 C 91 % 90 % 0 % 1011,5 hPa 0,7 l/m 0,0 km/h (0 Bft) N 0,00 h 0,0 UV-I 5,3 C 7,3 C 0,2 km/h (0 Bft)
11.10.2013 03:00 6,5 C 20,1 C 7,9 C 7,3 C 7,3 C 0,8 C 91 % 90 % 0 % 1011,4 hPa 0,0 l/m 0,2 km/h (0 Bft) N 0,00 h 0,0 UV-I 5,2 C 7,3 C 0,8 km/h (0 Bft)
11.10.2013 04:00 6,7 C 20,1 C 7,9 C 7,4 C 7,4 C 0,8 C 91 % 90 % 0 % 1011,2 hPa 0,7 l/m 0,1 km/h (0 Bft) N 0,00 h 0,0 UV-I 5,3 C 7,4 C 0,7 km/h (0 Bft)
11.10.2013 05:00 6,5 C 20,1 C 7,8 C 7,3 C 7,3 C 0,7 C 91 % 91 % 0 % 1011,3 hPa 0,0 l/m 0,4 km/h (0 Bft) N 0,00 h 0,0 UV-I 5,2 C 7,3 C 0,7 km/h (0 Bft)
11.10.2013 06:00 6,5 C 20,1 C 7,7 C 7,3 C 7,3 C 0,8 C 91 % 91 % 0 % 1011,3 hPa 0,0 l/m 0,0 km/h (0 Bft) N 0,00 h 0,0 UV-I 5,2 C 7,3 C 0,0 km/h (0 Bft)
11.10.2013 07:00 6,7 C 20,1 C 7,9 C 7,5 C 7,5 C 0,8 C 92 % 91 % 7 % 1012,0 hPa 0,7 l/m 0,0 km/h (0 Bft) N 0,33 h 0,0 UV-I 5,5 C 7,5 C 0,0 km/h (0 Bft)
11.10.2013 08:00 6,8 C 20,2 C 7,9 C 7,7 C 7,7 C 1,0 C 92 % 91 % 25 % 1012,2 hPa 0,0 l/m 0,1 km/h (0 Bft) N 0,17 h 0,0 UV-I 5,6 C 7,7 C 0,1 km/h (0 Bft)
11.10.2013 09:00 7,0 C 20,9 C 8,1 C 8,1 C 8,1 C 1,1 C 92 % 91 % 28 % 1012,5 hPa 0,0 l/m 0,3 km/h (0 Bft) N 0,00 h 0,0 UV-I 5,8 C 8,1 C 0,3 km/h (0 Bft)
11.10.2013 10:00 7,5 C 21,2 C 8,5 C 8,6 C 8,6 C 1,2 C 92 % 91 % 30 % 1013,1 hPa 0,0 l/m 0,7 km/h (0 Bft) N-NO 0,00 h 0,0 UV-I 6,2 C 8,6 C 1,0 km/h (0 Bft)
11.10.2013 11:00 7,8 C 20,9 C 8,8 C 8,8 C 8,8 C 1,0 C 92 % 91 % 26 % 1014,1 hPa 0,0 l/m 0,3 km/h (0 Bft) O-NO 0,00 h 0,0 UV-I 6,6 C 8,8 C 0,3 km/h (0 Bft)
11.10.2013 12:00 8,2 C 20,9 C 9,1 C 9,5 C 9,5 C 1,2 C 92 % 91 % 33 % 1013,4 hPa 0,0 l/m 0,3 km/h (0 Bft) N 0,00 h 0,0 UV-I 7,0 C 9,5 C 0,5 km/h (0 Bft)
11.10.2013 13:00 8,9 C 21,0 C 9,8 C 10,0 C 10,0 C 1,1 C 92 % 90 % 29 % 1012,8 hPa 2,1 l/m 0,8 km/h (0 Bft) O-NO 0,00 h 0,0 UV-I 7,7 C 10,0 C 1,8 km/h (1 Bft)
11.10.2013 14:00 9,3 C 21,2 C 10,0 C 10,1 C 10,1 C 0,9 C 92 % 91 % 23 % 1012,4 hPa 0,7 l/m 2,9 km/h (1 Bft) O-NO 0,00 h 0,0 UV-I 8,0 C 10,1 C 3,5 km/h (1 Bft)
11.10.2013 15:00 10,2 C 21,2 C 10,9 C 10,8 C 10,8 C 0,7 C 93 % 91 % 18 % 1011,6 hPa 0,7 l/m 5,2 km/h (1 Bft) O-NO 0,00 h 0,0 UV-I 9,1 C 10,8 C 5,9 km/h (2 Bft)
11.10.2013 16:00 9,7 C 21,6 C 10,3 C 10,2 C 10,2 C 0,5 C 92 % 90 % 14 % 1012,4 hPa 4,1 l/m 0,7 km/h (0 Bft) SO 0,00 h 0,0 UV-I 8,4 C 10,2 C 0,9 km/h (0 Bft)
11.10.2013 17:00 9,0 C 21,9 C 9,8 C 9,6 C 9,6 C 0,7 C 92 % 90 % 18 % 1013,0 hPa 1,4 l/m 0,0 km/h (0 Bft) N 0,08 h 0,0 UV-I 7,7 C 9,6 C 0,0 km/h (0 Bft)
11.10.2013 18:00 8,7 C 22,0 C 9,5 C 9,3 C 9,3 C 0,6 C 92 % 90 % 4 % 1014,1 hPa 4,1 l/m 0,5 km/h (0 Bft) SW 0,25 h 0,0 UV-I 7,5 C 9,3 C 1,3 km/h (1 Bft)
11.10.2013 19:00 8,3 C 22,0 C 9,2 C 8,9 C 8,9 C 0,5 C 91 % 91 % 0 % 1014,9 hPa 1,4 l/m 0,0 km/h (0 Bft) N 0,00 h 0,0 UV-I 6,9 C 8,9 C 0,0 km/h (0 Bft)
11.10.2013 20:00 8,0 C 21,9 C 8,9 C 8,6 C 8,6 C 0,6 C 92 % 91 % 0 % 1016,1 hPa 0,0 l/m 0,2 km/h (0 Bft) N 0,00 h 0,0 UV-I 6,7 C 8,6 C 0,3 km/h (0 Bft)
11.10.2013 21:00 7,2 C 21,8 C 8,1 C 7,5 C 7,5 C 0,3 C 91 % 91 % 0 % 1017,2 hPa 0,0 l/m 0,2 km/h (0 Bft) N 0,00 h 0,0 UV-I 5,8 C 7,5 C 0,5 km/h (0 Bft)
11.10.2013 22:00 6,6 C 21,7 C 7,6 C 6,8 C 6,8 C 0,2 C 91 % 91 % 0 % 1018,0 hPa 0,0 l/m 0,0 km/h (0 Bft) N 0,00 h 0,0 UV-I 5,2 C 6,8 C 0,0 km/h (0 Bft)
11.10.2013 23:00 6,0 C 21,6 C 7,1 C 6,4 C 6,4 C 0,3 C 92 % 91 % 0 % 1018,5 hPa 0,0 l/m 0,0 km/h (0 Bft) N 0,00 h 0,0 UV-I 4,8 C 6,4 C 0,0 km/h (0 Bft)
12.10.2013 00:00 5,9 C 21,6 C 6,9 C 6,3 C 6,3 C 0,4 C 92 % 91 % 0 % 1019,2 hPa 0,0 l/m 0,0 km/h (0 Bft) N 0,00 h 0,0 UV-I 4,6 C 6,3 C 0,0 km/h (0 Bft)
12.10.2013 01:00 5,1 C 21,6 C 6,4 C 5,4 C 5,4 C 0,3 C 91 % 91 % 0 % 1019,4 hPa 0,0 l/m 0,0 km/h (0 Bft) N 0,00 h 0,0 UV-I 3,8 C 5,4 C 0,0 km/h (0 Bft)
12.10.2013 02:00 4,6 C 21,5 C 6,0 C 5,2 C 5,2 C 0,6 C 92 % 92 % 0 % 1019,9 hPa 0,0 l/m 0,0 km/h (0 Bft) N 0,00 h 0,0 UV-I 3,4 C 5,2 C 0,2 km/h (0 Bft)
12.10.2013 03:00 5,0 C 21,4 C 6,3 C 5,7 C 5,7 C 0,7 C 92 % 91 % 0 % 1020,1 hPa 0,0 l/m 0,0 km/h (0 Bft) N 0,00 h 0,0 UV-I 3,8 C 5,7 C 0,0 km/h (0 Bft)
12.10.2013 04:00 4,9 C 21,3 C 6,3 C 5,7 C 5,7 C 0,8 C 92 % 92 % 0 % 1020,2 hPa 0,0 l/m 0,0 km/h (0 Bft) N 0,00 h 0,0 UV-I 3,7 C 5,7 C 0,0 km/h (0 Bft)
12.10.2013 05:00 5,0 C 21,3 C 6,1 C 5,4 C 5,4 C 0,5 C 92 % 91 % 0 % 1020,0 hPa 0,0 l/m 0,0 km/h (0 Bft) N 0,00 h 0,0 UV-I 3,8 C 5,4 C 0,0 km/h (0 Bft)
12.10.2013 06:00 4,8 C 21,2 C 6,1 C 5,6 C 5,6 C 0,8 C 92 % 92 % 0 % 1019,2 hPa 0,0 l/m 0,0 km/h (0 Bft) N 0,00 h 0,0 UV-I 3,6 C 5,6 C 0,0 km/h (0 Bft)
12.10.2013 07:00 5,1 C 21,2 C 6,3 C 5,9 C 5,9 C 0,8 C 93 % 92 % 7 % 1019,2 hPa 0,0 l/m 0,0 km/h (0 Bft) N 0,33 h 0,0 UV-I 4,0 C 5,9 C 0,0 km/h (0 Bft)
12.10.2013 08:00 5,2 C 21,1 C 6,4 C 6,2 C 6,2 C 1,0 C 93 % 92 % 26 % 1019,4 hPa 0,0 l/m 0,0 km/h (0 Bft) N 0,17 h 0,0 UV-I 4,2 C 6,2 C 0,0 km/h (0 Bft)
12.10.2013 09:00 6,1 C 21,1 C 7,4 C 7,9 C 7,9 C 1,8 C 93 % 91 % 48 % 1019,0 hPa 0,0 l/m 0,5 km/h (0 Bft) O-NO 0,00 h 0,0 UV-I 5,1 C 7,9 C 1,0 km/h (0 Bft)
12.10.2013 10:00 7,1 C 21,1 C 8,3 C 9,6 C 9,6 C 2,5 C 93 % 91 % 64 % 1018,7 hPa 0,0 l/m 0,7 km/h (0 Bft) O-SO 0,25 h 0,0 UV-I 6,0 C 9,6 C 1,7 km/h (1 Bft)
12.10.2013 11:00 8,6 C 21,1 C 9,7 C 11,5 C 11,5 C 2,9 C 93 % 91 % 76 % 1018,3 hPa 0,0 l/m 4,2 km/h (1 Bft) O-NO 0,33 h 0,0 UV-I 7,4 C 11,5 C 5,0 km/h (1 Bft)
12.10.2013 12:00 9,7 C 21,0 C 10,9 C 12,8 C 12,8 C 3,1 C 89 % 91 % 80 % 1017,6 hPa 0,0 l/m 4,4 km/h (1 Bft) O-SO 0,18 h 0,0 UV-I 8,0 C 12,8 C 5,0 km/h (1 Bft)
12.10.2013 13:00 11,7 C 20,8 C 12,5 C 14,5 C 14,5 C 2,8 C 85 % 90 % 69 % 1016,8 hPa 0,0 l/m 4,6 km/h (1 Bft) O-NO 0,40 h 0,0 UV-I 9,2 C 14,5 C 6,0 km/h (2 Bft)
12.10.2013 14:00 12,8 C 19,5 C 12,9 C 14,1 C 14,1 C 1,3 C 79 % 89 % 33 % 1016,5 hPa 0,0 l/m 4,6 km/h (1 Bft) O-NO 0,00 h 0,0 UV-I 9,2 C 14,1 C 6,3 km/h (2 Bft)
12.10.2013 15:00 12,7 C 19,1 C 12,7 C 13,2 C 13,2 C 0,5 C 81 % 87 % 14 % 1016,4 hPa 0,0 l/m 2,9 km/h (1 Bft) O-NO 0,00 h 0,0 UV-I 9,6 C 13,2 C 3,4 km/h (1 Bft)
12.10.2013 16:00 12,3 C 19,2 C 12,3 C 12,5 C 12,5 C 0,2 C 85 % 87 % 5 % 1016,1 hPa 0,0 l/m 0,1 km/h (0 Bft) N 0,00 h 0,0 UV-I 9,8 C 12,5 C 0,1 km/h (0 Bft)
12.10.2013 17:00 11,4 C 19,3 C 11,9 C 11,8 C 11,8 C 0,4 C 87 % 87 % 12 % 1015,7 hPa 0,0 l/m 0,1 km/h (0 Bft) O-SO 0,17 h 0,0 UV-I 9,3 C 11,8 C 0,2 km/h (0 Bft)
12.10.2013 18:00 10,9 C 19,4 C 11,8 C 11,5 C 11,5 C 0,5 C 88 % 88 % 6 % 1015,1 hPa 0,0 l/m 0,7 km/h (0 Bft) O-NO 0,25 h 0,0 UV-I 9,1 C 11,5 C 0,6 km/h (0 Bft)
12.10.2013 19:00 10,0 C 19,6 C 10,8 C 10,3 C 10,3 C 0,3 C 88 % 88 % 0 % 1015,4 hPa 0,0 l/m 0,0 km/h (0 Bft) N 0,00 h 0,0 UV-I 8,2 C 10,3 C 0,0 km/h (0 Bft)
12.10.2013 20:00 9,1 C 19,5 C 10,0 C 9,3 C 9,3 C 0,2 C 89 % 88 % 0 % 1015,1 hPa 0,0 l/m 0,0 km/h (0 Bft) N 0,00 h 0,0 UV-I 7,4 C 9,3 C 0,0 km/h (0 Bft)
12.10.2013 21:00 8,3 C 19,6 C 9,3 C 8,6 C 8,6 C 0,3 C 90 % 89 % 0 % 1015,6 hPa 0,0 l/m 0,0 km/h (0 Bft) N 0,00 h 0,0 UV-I 6,7 C 8,6 C 0,0 km/h (0 Bft)
12.10.2013 22:00 7,4 C 19,5 C 8,5 C 7,5 C 7,5 C 0,1 C 90 % 89 % 0 % 1016,2 hPa 0,0 l/m 0,2 km/h (0 Bft) N 0,00 h 0,0 UV-I 5,9 C 7,5 C 0,1 km/h (0 Bft)
12.10.2013 23:00 6,4 C 19,4 C 7,5 C 6,4 C 6,3 C 0,0 C 90 % 89 % 0 % 1016,9 hPa 0,0 l/m 0,5 km/h (0 Bft) SW 0,00 h 0,0 UV-I 4,9 C 6,3 C 0,8 km/h (0 Bft)
13.10.2013 00:00 6,2 C 19,1 C 7,7 C 6,5 C 6,5 C 0,3 C 90 % 89 % 0 % 1017,8 hPa 0,0 l/m 3,3 km/h (1 Bft) W-SW 0,00 h 0,6 UV-I 4,6 C 6,5 C 5,6 km/h (1 Bft)
13.10.2013 01:00 6,7 C 19,0 C 7,3 C 6,6 C 6,3 C 0,1 C 87 % 88 % 0 % 1018,0 hPa 0,0 l/m 1,8 km/h (1 Bft) W-SW 0,00 h 0,3 UV-I 4,6 C 6,3 C 3,5 km/h (1 Bft)
13.10.2013 02:00 5,5 C 19,0 C 6,2 C 5,2 C 4,7 C 0,0 C 86 % 88 % 0 % 1018,3 hPa 0,0 l/m 0,2 km/h (0 Bft) N 0,00 h 0,0 UV-I 3,3 C 4,7 C 0,4 km/h (0 Bft)
13.10.2013 03:00 4,5 C 18,9 C 5,7 C 4,4 C 4,0 C 0,0 C 88 % 88 % 0 % 1018,7 hPa 0,0 l/m 0,1 km/h (0 Bft) N 0,00 h 0,0 UV-I 2,7 C 4,0 C 0,4 km/h (0 Bft)
13.10.2013 04:00 3,6 C 18,9 C 5,0 C 3,4 C 3,1 C 0,0 C 88 % 88 % 0 % 1018,7 hPa 0,0 l/m 0,0 km/h (0 Bft) N 0,00 h 0,0 UV-I 1,8 C 3,1 C 0,0 km/h (0 Bft)
13.10.2013 05:00 2,9 C 18,9 C 4,7 C 2,9 C 2,9 C 0,1 C 89 % 88 % 0 % 1019,1 hPa 0,0 l/m 0,0 km/h (0 Bft) N 0,00 h 0,1 UV-I 1,2 C 2,9 C 0,0 km/h (0 Bft)
13.10.2013 06:00 2,7 C 18,9 C 4,2 C 2,7 C 2,7 C 0,0 C 89 % 88 % 0 % 1019,5 hPa 0,0 l/m 0,3 km/h (0 Bft) N-NO 0,00 h 0,1 UV-I 1,1 C 2,7 C 0,5 km/h (0 Bft)
13.10.2013 07:00 2,4 C 18,8 C 4,0 C 2,6 C 2,6 C 0,2 C 90 % 89 % 5 % 1020,0 hPa 0,0 l/m 0,2 km/h (0 Bft) S 0,33 h 0,3 UV-I 0,9 C 2,6 C 0,3 km/h (0 Bft)
13.10.2013 08:00 2,9 C 18,7 C 4,7 C 3,8 C 3,8 C 0,9 C 91 % 89 % 25 % 1021,0 hPa 0,0 l/m 0,1 km/h (0 Bft) N 0,17 h 1,1 UV-I 1,6 C 3,8 C 0,3 km/h (0 Bft)
13.10.2013 09:00 3,8 C 18,5 C 5,6 C 5,2 C 5,2 C 1,4 C 92 % 89 % 36 % 1021,1 hPa 0,0 l/m 0,1 km/h (0 Bft) N 0,00 h 2,2 UV-I 2,6 C 5,2 C 0,2 km/h (0 Bft)
13.10.2013 10:00 5,4 C 18,4 C 7,3 C 7,6 C 7,6 C 2,2 C 92 % 89 % 59 % 1021,1 hPa 0,0 l/m 0,0 km/h (0 Bft) N 0,08 h 1,1 UV-I 4,2 C 7,6 C 0,0 km/h (0 Bft)
13.10.2013 11:00 7,0 C 18,2 C 8,7 C 10,1 C 10,1 C 3,1 C 91 % 88 % 80 % 1021,4 hPa 0,0 l/m 0,3 km/h (0 Bft) S 0,33 h 0,0 UV-I 5,7 C 10,1 C 0,5 km/h (0 Bft)
13.10.2013 12:00 9,1 C 18,2 C 9,6 C 13,5 C 13,5 C 4,4 C 85 % 86 % 88 % 1021,2 hPa 0,0 l/m 2,1 km/h (1 Bft) SW 0,52 h 0,0 UV-I 6,8 C 13,5 C 4,4 km/h (1 Bft)
13.10.2013 13:00 11,5 C 18,2 C 11,1 C 14,9 C 14,9 C 3,4 C 78 % 85 % 83 % 1020,9 hPa 0,0 l/m 3,3 km/h (1 Bft) SW 0,57 h 0,0 UV-I 7,7 C 14,9 C 5,4 km/h (1 Bft)
13.10.2013 14:00 12,1 C 18,2 C 11,7 C 13,6 C 13,6 C 1,4 C 72 % 82 % 38 % 1019,9 hPa 0,0 l/m 3,1 km/h (1 Bft) W-SW 0,00 h 0,0 UV-I 7,3 C 13,6 C 5,1 km/h (1 Bft)
13.10.2013 15:00 11,9 C 18,2 C 11,4 C 12,9 C 12,9 C 0,9 C 70 % 81 % 25 % 1019,7 hPa 0,0 l/m 4,7 km/h (1 Bft) W-SW 0,00 h 0,0 UV-I 6,6 C 12,9 C 7,2 km/h (2 Bft)
13.10.2013 16:00 12,7 C 18,3 C 11,6 C 15,5 C 15,5 C 2,8 C 64 % 78 % 75 % 1020,3 hPa 0,0 l/m 5,8 km/h (2 Bft) SW 0,42 h 0,0 UV-I 6,0 C 15,5 C 8,4 km/h (2 Bft)
13.10.2013 17:00 11,9 C 18,4 C 10,6 C 14,3 C 14,3 C 2,5 C 65 % 76 % 64 % 1021,0 hPa 0,0 l/m 2,3 km/h (1 Bft) SW 0,92 h 0,0 UV-I 5,6 C 14,3 C 2,5 km/h (1 Bft)
13.10.2013 18:00 9,8 C 18,4 C 8,5 C 9,3 C 8,5 C 0,0 C 71 % 79 % 0 % 1021,6 hPa 0,0 l/m 0,0 km/h (0 Bft) N 0,00 h 0,0 UV-I 4,9 C 8,5 C 0,0 km/h (0 Bft)
13.10.2013 19:00 6,7 C 18,5 C 6,3 C 6,1 C 4,8 C 0,0 C 82 % 83 % 0 % 1021,8 hPa 0,0 l/m 0,0 km/h (0 Bft) N 0,00 h 0,0 UV-I 3,8 C 4,8 C 0,0 km/h (0 Bft)
13.10.2013 20:00 4,5 C 18,6 C 5,0 C 4,1 C 3,2 C 0,0 C 85 % 84 % 0 % 1021,5 hPa 0,0 l/m 0,0 km/h (0 Bft) N 0,00 h 0,0 UV-I 2,3 C 3,2 C 0,0 km/h (0 Bft)
13.10.2013 21:00 3,1 C 18,5 C 4,2 C 2,9 C 2,4 C 0,0 C 87 % 85 % 0 % 1021,6 hPa 0,0 l/m 0,0 km/h (0 Bft) N 0,00 h 0,0 UV-I 1,1 C 2,4 C 0,0 km/h (0 Bft)
13.10.2013 22:00 2,3 C 18,5 C 3,6 C 2,1 C 1,7 C 0,0 C 88 % 86 % 0 % 1021,9 hPa 0,0 l/m 0,0 km/h (0 Bft) N 0,00 h 0,0 UV-I 0,5 C 1,7 C 0,0 km/h (0 Bft)
13.10.2013 23:00 1,5 C 18,4 C 3,0 C 1,3 C 0,9 C 0,0 C 88 % 86 % 0 % 1021,9 hPa 0,0 l/m 0,0 km/h (0 Bft) N 0,00 h 0,0 UV-I -0,3 C 0,9 C 0,0 km/h (0 Bft)
Min-Datum _ 13.10.13 13.10.13 13.10.13 13.10.13 13.10.13 07.10.13 09.10.13 09.10.13 07.10.13 10.10.13 - 07.10.13 - - 07.10.13 13.10.13 13.10.13 07.10.13
_ Min-Zeit 23:55 11:45 23:50 23:55 23:55 17:20 15:55 15:35 00:00 11:50 - 00:00 - - 00:00 23:55 23:55 00:00
Minimum _ 1,2 C 18,1 C 2,7 C 1,0 C 0,5 C 0,0 C 58 % 62 % 0 % 1004,2 hPa - 0,0 km/h (0 Bft) - - 0,0 UV-I -0,6 C 0,5 C 0,0 km/h (0 Bft)
Max-Datum _ 08.10.13 11.10.13 09.10.13 09.10.13 09.10.13 13.10.13 11.10.13 12.10.13 08.10.13 07.10.13 11.10.13 11.10.13 - 08.10.13 13.10.13 07.10.13 09.10.13 13.10.13
_ Max-Zeit 15:55 19:25 15:10 15:30 15:30 12:35 15:10 02:27 12:41 08:50 16:00 15:45 - 13:00 09:55 13:10 15:30 16:00
Maximum _ 18,4 C 22,2 C 18,3 C 24,1 C 24,1 C 6,7 C 93 % 92 % 100 % 1026,2 hPa 4,1 l/m 7,4 km/h
O-NO (2 Bft)
- 0,32 h 3,2 UV-I 11,7 C 24,1 C 18,7 km/h
SW (3 Bft)
Durchschnitt _ 9,9 C 20,1 C 10,5 C 10,8 C 10,7 C 1,0 C 84 % 84 % 19 % 1017,7 hPa #30,9 l/m 1,0 km/h (0 Bft) O-NO #14:30 h 0,7 UV-I 7,2 C 10,7 C 1,4 km/h (1 Bft)
2013 www.wetterstation-wechselburg.de